Time;durP1;ratioP1;P1;durP2;ratioP2;P2;SDS_P1;SDS_P2;PMS_P1;PMS_P2;Temp;Humidity;BMP_temperature;BMP_pressure;BME280_temperature;BME280_humidity;BME280_pressure;Samples;Min_cycle;Max_cycle;Signal;HPM_P1;HPM_P2
2022/04/15 00:00:29;;;;;;;14.55;8.88;;;11.50;96.70;;;;;;5052129;28;20044;-71
2022/04/15 00:02:55;;;;;;;12.13;9.50;;;11.30;96.80;;;;;;5053368;28;20067;-72
2022/04/15 00:05:34;;;;;;;11.88;8.73;;;11.20;96.90;;;;;;5054440;28;20063;-72
2022/04/15 00:08:01;;;;;;;13.77;9.23;;;11.10;97.00;;;;;;5053180;28;20041;-72
2022/04/15 00:10:30;;;;;;;13.38;9.15;;;11.10;97.10;;;;;;5050620;28;20025;-70
2022/04/15 00:12:56;;;;;;;11.45;8.57;;;11.10;97.10;;;;;;5053827;28;20032;-73
2022/04/15 00:15:22;;;;;;;12.88;8.82;;;11.10;97.10;;;;;;5058237;28;20043;-72
2022/04/15 00:17:48;;;;;;;12.05;8.52;;;11.20;97.10;;;;;;5045904;28;20029;-71
2022/04/15 00:20:14;;;;;;;16.15;9.13;;;11.30;97.00;;;;;;5051466;28;20040;-71
2022/04/15 00:22:40;;;;;;;11.90;8.77;;;11.30;96.90;;;;;;5049759;28;20043;-72
2022/04/15 00:25:07;;;;;;;14.60;9.63;;;11.40;96.90;;;;;;5054018;28;20033;-72
2022/04/15 00:27:34;;;;;;;14.43;8.82;;;11.50;96.80;;;;;;5055388;28;20506;-72
2022/04/15 00:30:00;;;;;;;13.85;9.15;;;11.50;96.60;;;;;;5054828;28;20035;-72
2022/04/15 00:32:26;;;;;;;14.70;9.48;;;11.50;96.60;;;;;;5041398;28;20024;-71
2022/04/15 00:34:53;;;;;;;14.45;8.75;;;11.60;96.60;;;;;;5040215;28;20059;-71
2022/04/15 00:37:18;;;;;;;12.45;7.80;;;11.60;96.70;;;;;;5043789;28;20131;-72
2022/04/15 00:39:45;;;;;;;11.32;7.10;;;11.60;96.30;;;;;;5043533;28;20139;-72
2022/04/15 00:42:11;;;;;;;9.35;7.53;;;11.60;96.30;;;;;;5048218;28;20048;-71
2022/04/15 00:44:37;;;;;;;12.25;7.63;;;11.60;96.20;;;;;;5046027;28;20425;-72
2022/04/15 00:47:28;;;;;;;10.45;6.63;;;11.50;96.10;;;;;;5047532;28;20055;-72
2022/04/15 00:49:54;;;;;;;12.43;7.88;;;11.30;96.10;;;;;;5042044;28;20044;-72
2022/04/15 00:52:22;;;;;;;11.15;7.60;;;11.20;96.20;;;;;;5047045;28;20037;-72
2022/04/15 00:54:51;;;;;;;12.23;8.00;;;11.10;96.30;;;;;;5044567;28;20029;-72
2022/04/15 00:57:22;;;;;;;9.32;7.13;;;11.10;96.30;;;;;;5046672;28;20048;-72
2022/04/15 00:59:51;;;;;;;12.50;7.90;;;11.10;96.30;;;;;;5045655;28;20060;-72
2022/04/15 01:02:18;;;;;;;13.38;8.13;;;11.20;96.20;;;;;;5047957;28;20036;-72
2022/04/15 01:04:44;;;;;;;11.10;7.53;;;11.10;96.10;;;;;;5047463;28;20032;-72
2022/04/15 01:07:14;;;;;;;12.30;7.60;;;11.00;96.10;;;;;;5048113;28;20318;-72
2022/04/15 01:09:43;;;;;;;14.10;7.57;;;10.90;95.90;;;;;;5042370;28;20052;-72
2022/04/15 01:12:10;;;;;;;13.38;7.78;;;10.80;96.00;;;;;;5043911;28;20042;-72
2022/04/15 01:14:38;;;;;;;14.20;8.07;;;10.80;96.00;;;;;;5047159;28;20048;-72
2022/04/15 01:17:04;;;;;;;17.77;8.57;;;10.70;96.00;;;;;;5032368;28;20090;-72
2022/04/15 01:19:30;;;;;;;17.63;8.23;;;10.70;95.90;;;;;;5045474;28;20041;-72
2022/04/15 01:22:01;;;;;;;13.82;7.40;;;10.70;95.80;;;;;;5039486;28;20043;-72
2022/04/15 01:24:29;;;;;;;10.05;7.53;;;10.70;95.60;;;;;;5044350;28;20961;-72
2022/04/15 01:26:54;;;;;;;15.73;8.15;;;10.80;95.50;;;;;;5046228;28;20607;-72
2022/04/15 01:29:20;;;;;;;14.88;8.05;;;10.90;95.40;;;;;;5047948;28;20052;-71
2022/04/15 01:31:46;;;;;;;19.83;9.63;;;11.00;95.30;;;;;;5045787;28;20202;-72
2022/04/15 01:34:11;;;;;;;15.20;9.55;;;10.90;94.80;;;;;;5044730;28;20036;-71
2022/04/15 01:36:37;;;;;;;18.80;10.52;;;10.90;94.90;;;;;;5045303;28;20083;-72
2022/04/15 01:39:03;;;;;;;12.25;9.13;;;10.80;94.60;;;;;;5042861;28;20113;-72
2022/04/15 01:41:28;;;;;;;17.67;9.98;;;10.80;94.50;;;;;;5048766;28;20645;-72
2022/04/15 01:43:54;;;;;;;16.33;9.57;;;10.70;94.60;;;;;;5046947;28;20072;-72
2022/04/15 01:46:20;;;;;;;14.82;9.43;;;10.70;94.30;;;;;;5048225;28;20036;-72
2022/04/15 01:48:45;;;;;;;17.20;9.63;;;10.70;94.40;;;;;;5050630;28;20529;-72
2022/04/15 01:51:11;;;;;;;17.60;8.98;;;10.70;94.70;;;;;;5040453;28;20843;-72
2022/04/15 01:53:37;;;;;;;12.45;9.20;;;10.60;94.20;;;;;;5042400;28;20030;-72
2022/04/15 01:56:05;;;;;;;15.43;10.27;;;10.60;94.40;;;;;;5043366;28;20041;-72
2022/04/15 01:58:33;;;;;;;15.63;9.65;;;10.60;94.40;;;;;;5048706;28;20034;-72
2022/04/15 02:00:59;;;;;;;13.40;9.65;;;10.60;94.20;;;;;;5046496;28;20071;-72
2022/04/15 02:03:25;;;;;;;15.73;9.57;;;10.60;94.20;;;;;;5047350;28;20041;-72
2022/04/15 02:05:51;;;;;;;15.63;9.35;;;10.60;94.00;;;;;;5043406;28;20044;-72
2022/04/15 02:08:16;;;;;;;13.65;9.15;;;10.60;93.80;;;;;;5037194;28;20111;-72
2022/04/15 02:10:42;;;;;;;16.38;9.88;;;10.70;94.00;;;;;;5037644;28;20138;-72
2022/04/15 02:13:08;;;;;;;17.05;9.75;;;10.60;93.80;;;;;;5041423;28;20116;-72
2022/04/15 02:15:33;;;;;;;15.30;9.45;;;10.60;93.90;;;;;;5040891;28;20040;-72
2022/04/15 02:17:59;;;;;;;21.30;11.05;;;10.60;93.90;;;;;;5044809;28;20045;-72
2022/04/15 02:20:25;;;;;;;14.93;9.15;;;10.60;93.70;;;;;;5046576;28;20044;-72
2022/04/15 02:22:54;;;;;;;13.27;9.55;;;10.60;93.60;;;;;;5040124;28;20087;-72
2022/04/15 02:25:20;;;;;;;14.93;9.35;;;10.60;93.70;;;;;;5047341;28;20643;-72
2022/04/15 02:27:45;;;;;;;19.27;10.20;;;10.50;93.80;;;;;;5023146;28;20044;-72
2022/04/15 02:30:11;;;;;;;15.65;9.65;;;10.50;93.90;;;;;;5044884;28;20032;-72
2022/04/15 02:32:37;;;;;;;13.40;8.90;;;10.50;93.80;;;;;;5043209;28;20685;-72
2022/04/15 02:35:03;;;;;;;13.77;10.02;;;10.50;93.60;;;;;;5045040;28;20046;-72
2022/04/15 02:37:29;;;;;;;14.63;9.52;;;10.50;93.70;;;;;;5046774;28;20599;-72
2022/04/15 02:39:55;;;;;;;13.27;9.23;;;10.50;93.70;;;;;;5045165;28;20045;-72
2022/04/15 02:42:21;;;;;;;15.98;9.30;;;10.50;93.70;;;;;;5049038;28;20032;-72
2022/04/15 02:44:47;;;;;;;15.13;8.93;;;10.50;93.60;;;;;;5021482;28;20551;-73
2022/04/15 02:47:12;;;;;;;16.33;9.90;;;10.40;93.60;;;;;;5024692;28;20483;-74
2022/04/15 02:49:38;;;;;;;14.15;9.10;;;10.40;93.20;;;;;;5047466;28;20029;-73
2022/04/15 02:52:04;;;;;;;12.43;8.35;;;10.40;93.20;;;;;;5049194;28;20024;-74
2022/04/15 02:54:30;;;;;;;13.35;8.30;;;10.30;93.50;;;;;;5048519;28;20044;-68
2022/04/15 02:56:56;;;;;;;10.85;7.35;;;10.30;93.60;;;;;;5046722;28;20036;-71
2022/04/15 02:59:21;;;;;;;10.18;6.88;;;10.30;93.70;;;;;;5053300;28;20060;-75
2022/04/15 03:01:49;;;;;;;10.30;6.85;;;10.30;94.00;;;;;;5030278;28;20018;-77
2022/04/15 03:04:15;;;;;;;7.95;6.40;;;10.30;93.60;;;;;;5047356;28;20383;-76
2022/04/15 03:06:40;;;;;;;6.85;5.32;;;10.40;93.60;;;;;;5048584;28;20094;-76
2022/04/15 03:09:06;;;;;;;11.40;6.05;;;10.40;93.30;;;;;;5046852;28;20040;-75
2022/04/15 03:11:32;;;;;;;13.55;5.85;;;10.40;93.30;;;;;;5032366;28;20032;-72
2022/04/15 03:13:58;;;;;;;9.02;5.72;;;10.40;93.30;;;;;;5030323;28;20128;-74
2022/04/15 03:16:24;;;;;;;10.77;5.55;;;10.40;93.30;;;;;;5043229;28;20132;-75
2022/04/15 03:18:49;;;;;;;8.77;5.65;;;10.40;93.20;;;;;;5049229;28;21045;-74
2022/04/15 03:21:15;;;;;;;9.63;5.60;;;10.40;93.10;;;;;;5051695;28;20040;-75
2022/04/15 03:23:42;;;;;;;8.23;5.47;;;10.40;93.20;;;;;;5047061;28;20061;-73
2022/04/15 03:26:08;;;;;;;8.05;5.57;;;10.40;93.20;;;;;;5044520;28;20033;-74
2022/04/15 03:28:34;;;;;;;8.55;5.60;;;10.30;93.20;;;;;;5046786;28;20131;-74
2022/04/15 03:31:00;;;;;;;10.85;5.47;;;10.30;93.30;;;;;;5045012;28;20033;-75
2022/04/15 03:33:25;;;;;;;9.98;5.80;;;10.30;93.30;;;;;;5046720;28;20135;-75
2022/04/15 03:35:51;;;;;;;8.93;5.90;;;10.40;93.30;;;;;;5048814;28;20040;-75
2022/04/15 03:38:17;;;;;;;8.18;5.38;;;10.40;92.90;;;;;;5047914;28;20056;-75
2022/04/15 03:40:42;;;;;;;8.18;5.45;;;10.40;93.10;;;;;;5047998;28;20029;-74
2022/04/15 03:43:09;;;;;;;8.25;5.80;;;10.40;93.10;;;;;;5046848;28;20480;-75
2022/04/15 03:45:35;;;;;;;10.02;5.85;;;10.30;93.20;;;;;;5045613;28;20166;-73
2022/04/15 03:48:01;;;;;;;7.78;5.72;;;10.30;93.60;;;;;;5041397;28;20063;-75
2022/04/15 03:50:27;;;;;;;8.10;5.47;;;10.40;93.40;;;;;;5052289;28;20085;-75
2022/04/15 03:52:53;;;;;;;9.82;6.25;;;10.40;93.20;;;;;;5039653;28;20388;-75
2022/04/15 03:55:21;;;;;;;7.55;5.63;;;10.40;93.20;;;;;;5049117;28;20035;-73
2022/04/15 03:57:48;;;;;;;11.73;6.15;;;10.40;93.10;;;;;;5048575;28;20036;-75
2022/04/15 04:00:19;;;;;;;8.23;6.20;;;10.40;93.20;;;;;;5034342;28;20068;-73
2022/04/15 04:02:53;;;;;;;8.02;6.03;;;10.40;93.30;;;;;;5041315;28;20037;-73
2022/04/15 04:05:22;;;;;;;9.40;6.13;;;10.40;93.20;;;;;;5038700;28;20453;-73
2022/04/15 04:07:48;;;;;;;10.02;6.18;;;10.40;92.80;;;;;;5042361;28;20040;-73
2022/04/15 04:10:15;;;;;;;8.15;6.10;;;10.30;93.10;;;;;;5043617;28;20106;-73
2022/04/15 04:12:42;;;;;;;12.50;6.82;;;10.30;93.20;;;;;;5043341;28;20040;-73
2022/04/15 04:15:09;;;;;;;8.85;6.75;;;10.30;93.30;;;;;;5041264;28;20033;-74
2022/04/15 04:17:35;;;;;;;8.93;6.32;;;10.30;93.00;;;;;;5038929;28;20037;-73
2022/04/15 04:20:02;;;;;;;9.13;6.32;;;10.30;93.20;;;;;;5038369;28;20040;-73
2022/04/15 04:22:29;;;;;;;9.45;6.63;;;10.30;93.30;;;;;;5045238;28;20029;-73
2022/04/15 04:24:55;;;;;;;12.65;6.47;;;10.30;93.30;;;;;;5046096;28;20028;-73
2022/04/15 04:27:21;;;;;;;9.52;6.57;;;10.30;93.20;;;;;;5046041;28;20033;-73
2022/04/15 04:29:47;;;;;;;10.15;6.88;;;10.30;93.30;;;;;;5041936;28;20983;-73
2022/04/15 04:32:15;;;;;;;11.75;6.28;;;10.30;93.40;;;;;;5043594;28;20183;-73
2022/04/15 04:34:40;;;;;;;9.18;6.32;;;10.30;93.30;;;;;;5027625;28;20040;-73
2022/04/15 04:37:06;;;;;;;13.35;8.07;;;10.30;93.20;;;;;;5027168;28;20030;-73
2022/04/15 04:39:32;;;;;;;12.10;7.38;;;10.40;93.20;;;;;;5042132;28;20098;-73
2022/04/15 04:41:58;;;;;;;11.98;7.65;;;10.30;93.00;;;;;;5038176;28;20049;-73
2022/04/15 04:44:24;;;;;;;12.43;7.18;;;10.40;93.10;;;;;;5038034;28;20033;-73
2022/04/15 04:46:51;;;;;;;11.07;7.63;;;10.40;93.20;;;;;;5042834;28;20043;-73
2022/04/15 04:49:18;;;;;;;12.18;7.38;;;10.40;93.10;;;;;;5046537;28;20040;-73
2022/04/15 04:51:43;;;;;;;10.15;6.72;;;10.40;93.10;;;;;;5049776;28;20032;-73
2022/04/15 04:54:09;;;;;;;10.75;6.82;;;10.40;93.00;;;;;;5035411;28;20029;-74
2022/04/15 04:56:35;;;;;;;14.70;7.65;;;10.40;93.00;;;;;;5046564;28;20861;-73
2022/04/15 04:59:01;;;;;;;8.70;6.35;;;10.40;93.10;;;;;;5039608;28;20433;-74
2022/04/15 05:01:26;;;;;;;9.30;6.60;;;10.50;92.90;;;;;;5042608;28;20114;-73
2022/04/15 05:03:52;;;;;;;10.77;6.95;;;10.50;93.10;;;;;;5023272;28;20093;-73
2022/04/15 05:06:18;;;;;;;10.50;7.32;;;10.50;92.80;;;;;;5044841;28;20047;-73
2022/04/15 05:08:43;;;;;;;9.48;6.40;;;10.60;92.80;;;;;;5040363;28;20024;-73
2022/04/15 05:11:09;;;;;;;7.78;6.22;;;10.60;92.70;;;;;;5051563;28;20028;-73
2022/04/15 05:13:35;;;;;;;8.15;5.95;;;10.60;92.50;;;;;;5042017;28;20037;-73
2022/04/15 05:16:00;;;;;;;9.02;5.57;;;10.60;92.60;;;;;;5042150;28;20033;-73
2022/04/15 05:18:26;;;;;;;8.38;5.82;;;10.60;92.40;;;;;;5039129;28;20032;-73
2022/04/15 05:20:52;;;;;;;12.50;6.65;;;10.70;92.40;;;;;;5040315;28;20041;-73
2022/04/15 05:23:18;;;;;;;10.55;5.97;;;10.70;92.30;;;;;;5043280;28;20071;-73
2022/04/15 05:25:43;;;;;;;10.27;5.65;;;10.70;92.30;;;;;;5045216;28;20051;-73
2022/04/15 05:28:09;;;;;;;7.80;5.72;;;10.70;92.20;;;;;;5040813;28;20053;-73
2022/04/15 05:30:35;;;;;;;7.93;5.68;;;10.80;92.20;;;;;;5046292;28;20028;-73
2022/04/15 05:33:01;;;;;;;7.70;6.07;;;10.90;91.90;;;;;;5033958;28;20030;-73
2022/04/15 05:35:26;;;;;;;8.35;5.45;;;10.90;91.80;;;;;;5039628;28;20064;-73
2022/04/15 05:37:52;;;;;;;11.43;6.07;;;10.90;92.00;;;;;;5042717;28;20037;-73
2022/04/15 05:40:18;;;;;;;7.93;6.00;;;10.90;92.10;;;;;;5046589;28;20039;-73
2022/04/15 05:42:44;;;;;;;9.63;6.13;;;10.90;91.90;;;;;;5042071;28;20041;-73
2022/04/15 05:45:10;;;;;;;8.70;5.95;;;10.90;91.80;;;;;;5045802;28;20549;-73
2022/04/15 05:47:37;;;;;;;7.75;5.55;;;10.90;91.80;;;;;;5024172;28;20559;-73
2022/04/15 05:50:03;;;;;;;8.65;6.15;;;11.00;91.90;;;;;;5042087;28;20033;-73
2022/04/15 05:52:28;;;;;;;9.18;6.00;;;10.90;91.80;;;;;;5036073;28;20877;-72
2022/04/15 05:54:54;;;;;;;8.38;5.88;;;11.00;91.70;;;;;;5044597;28;20036;-73
2022/04/15 05:57:20;;;;;;;8.50;6.03;;;11.00;91.70;;;;;;5043460;28;20033;-73
2022/04/15 05:59:45;;;;;;;11.45;6.18;;;11.00;91.80;;;;;;5046350;28;20071;-73
2022/04/15 06:02:11;;;;;;;9.88;6.05;;;11.00;91.80;;;;;;5041930;28;20037;-73
2022/04/15 06:04:37;;;;;;;6.32;5.38;;;11.00;92.00;;;;;;5042515;28;20076;-73
2022/04/15 06:07:03;;;;;;;11.88;6.97;;;11.10;91.90;;;;;;5045624;28;20033;-73
2022/04/15 06:09:28;;;;;;;8.77;5.30;;;11.10;91.90;;;;;;5042748;28;20036;-73
2022/04/15 06:11:56;;;;;;;9.65;6.07;;;11.30;91.50;;;;;;5045423;28;20047;-73
2022/04/15 06:14:22;;;;;;;9.30;6.45;;;11.40;91.30;;;;;;5045768;28;20025;-73
2022/04/15 06:16:49;;;;;;;10.48;6.28;;;11.60;91.10;;;;;;5039289;28;20049;-73
2022/04/15 06:19:15;;;;;;;10.82;6.15;;;11.60;90.60;;;;;;5024091;28;20110;-73
2022/04/15 06:21:41;;;;;;;8.52;5.47;;;11.70;90.50;;;;;;5047840;28;20028;-73
2022/04/15 06:24:08;;;;;;;8.52;6.00;;;11.80;90.40;;;;;;5027433;28;20029;-73
2022/04/15 06:26:37;;;;;;;8.85;5.55;;;11.90;89.90;;;;;;5045937;28;20071;-73
2022/04/15 06:29:04;;;;;;;8.85;5.95;;;12.00;89.60;;;;;;5043917;28;20029;-73
2022/04/15 06:31:30;;;;;;;9.98;6.57;;;12.00;88.80;;;;;;5050774;28;20068;-73
2022/04/15 06:33:56;;;;;;;8.45;6.80;;;12.00;88.80;;;;;;5043982;28;20127;-73
2022/04/15 06:36:22;;;;;;;8.38;6.43;;;12.00;89.10;;;;;;5048207;28;20098;-73
2022/04/15 06:38:48;;;;;;;8.88;5.63;;;12.10;89.20;;;;;;5047074;28;20174;-73
2022/04/15 06:41:14;;;;;;;10.68;6.28;;;12.10;89.30;;;;;;5038123;28;20082;-73
2022/04/15 06:43:40;;;;;;;9.07;6.45;;;12.10;88.60;;;;;;5048501;28;20865;-73
2022/04/15 06:46:06;;;;;;;10.07;6.28;;;12.10;88.00;;;;;;5039825;28;20083;-73
2022/04/15 06:48:32;;;;;;;9.40;6.18;;;12.10;88.40;;;;;;5044560;28;20036;-73
2022/04/15 06:50:57;;;;;;;8.48;6.00;;;12.20;88.70;;;;;;5044636;28;20052;-73
2022/04/15 06:53:23;;;;;;;9.07;5.90;;;12.10;88.40;;;;;;5048140;28;20994;-73
2022/04/15 06:55:53;;;;;;;9.00;5.55;;;12.20;88.20;;;;;;5047018;28;20161;-73
2022/04/15 06:58:19;;;;;;;9.73;6.10;;;12.20;88.40;;;;;;5052110;28;20020;-73
2022/04/15 07:00:46;;;;;;;8.90;5.63;;;12.30;88.40;;;;;;5037966;28;20029;-73
2022/04/15 07:03:12;;;;;;;7.93;5.90;;;12.40;87.80;;;;;;5036045;28;20111;-73
2022/04/15 07:05:39;;;;;;;9.45;6.10;;;12.40;87.00;;;;;;5040274;28;20041;-73
2022/04/15 07:08:08;;;;;;;9.55;5.47;;;12.40;87.20;;;;;;5037753;28;20033;-73
2022/04/15 07:10:35;;;;;;;8.80;5.20;;;12.40;87.30;;;;;;5046543;28;20124;-73
2022/04/15 07:13:02;;;;;;;7.07;5.55;;;12.40;87.60;;;;;;5043488;28;20043;-72
2022/04/15 07:15:28;;;;;;;9.65;6.15;;;12.40;87.60;;;;;;5047630;28;20033;-73
2022/04/15 07:17:55;;;;;;;7.95;5.75;;;12.40;86.60;;;;;;5047156;28;20605;-73
2022/04/15 07:20:21;;;;;;;8.23;5.47;;;12.50;86.30;;;;;;5039430;28;20716;-74
2022/04/15 07:22:47;;;;;;;9.57;5.80;;;12.40;85.10;;;;;;5043166;28;20753;-73
2022/04/15 07:25:13;;;;;;;8.52;5.82;;;12.40;85.40;;;;;;5041799;28;20034;-73
2022/04/15 07:27:39;;;;;;;10.45;6.10;;;12.30;85.80;;;;;;5042064;28;20103;-73
2022/04/15 07:30:05;;;;;;;9.07;5.45;;;12.30;86.10;;;;;;5045445;28;20102;-73
2022/04/15 07:32:31;;;;;;;9.65;6.35;;;12.20;86.50;;;;;;5043095;28;20823;-73
2022/04/15 07:34:56;;;;;;;9.90;5.90;;;12.20;87.10;;;;;;5042455;28;20032;-73
2022/04/15 07:37:22;;;;;;;8.32;6.10;;;12.20;87.30;;;;;;5044470;28;20028;-73
2022/04/15 07:39:48;;;;;;;10.13;6.57;;;12.30;87.10;;;;;;5042161;28;20120;-73
2022/04/15 07:42:14;;;;;;;8.65;6.80;;;12.40;87.10;;;;;;5049141;28;20116;-73
2022/04/15 07:44:41;;;;;;;10.55;6.95;;;12.30;86.20;;;;;;5050467;28;20090;-73
2022/04/15 07:47:10;;;;;;;9.50;6.45;;;12.20;86.40;;;;;;5044903;28;20563;-73
2022/04/15 07:49:36;;;;;;;7.57;6.15;;;12.30;87.10;;;;;;5049892;28;20029;-73
2022/04/15 07:52:04;;;;;;;10.13;6.75;;;12.20;86.90;;;;;;5048158;28;20028;-74
2022/04/15 07:54:31;;;;;;;11.60;7.03;;;12.40;86.70;;;;;;5052720;28;20024;-72
2022/04/15 07:56:57;;;;;;;11.73;7.10;;;12.40;86.00;;;;;;5040484;28;20021;-72
2022/04/15 07:59:22;;;;;;;14.00;7.10;;;12.50;86.30;;;;;;5048762;28;20381;-72
2022/04/15 08:01:48;;;;;;;11.23;7.60;;;12.50;86.80;;;;;;5045873;28;20116;-72
2022/04/15 08:04:14;;;;;;;15.30;8.32;;;12.40;86.10;;;;;;5050057;28;20033;-72
2022/04/15 08:06:40;;;;;;;11.23;7.47;;;12.30;86.30;;;;;;5043730;28;20734;-72
2022/04/15 08:09:05;;;;;;;10.82;8.05;;;12.30;86.20;;;;;;5040953;28;20467;-73
2022/04/15 08:11:31;;;;;;;15.15;8.35;;;12.40;86.50;;;;;;5041986;28;20037;-76
2022/04/15 08:13:57;;;;;;;14.35;7.95;;;12.60;86.20;;;;;;5047824;28;20028;-72
2022/04/15 08:16:26;;;;;;;12.35;7.25;;;12.70;85.20;;;;;;5047512;28;20056;-72
2022/04/15 08:18:54;;;;;;;14.27;8.02;;;12.70;85.00;;;;;;5045586;28;20120;-73
2022/04/15 08:21:20;;;;;;;10.05;7.20;;;12.70;85.60;;;;;;5047211;28;20041;-72
2022/04/15 08:23:47;;;;;;;11.18;7.28;;;12.80;85.30;;;;;;5041892;28;20039;-72
2022/04/15 08:26:13;;;;;;;12.55;7.45;;;12.80;85.30;;;;;;5043211;28;20167;-72
2022/04/15 08:28:38;;;;;;;13.05;8.13;;;12.80;84.90;;;;;;5040967;28;20030;-72
2022/04/15 08:31:04;;;;;;;13.48;7.47;;;12.80;84.40;;;;;;5049620;28;20029;-73
2022/04/15 08:33:30;;;;;;;11.35;7.60;;;12.70;84.40;;;;;;5046413;28;20544;-76
2022/04/15 08:35:56;;;;;;;11.55;7.40;;;12.60;84.20;;;;;;5034454;28;20033;-73
2022/04/15 08:38:22;;;;;;;12.00;7.50;;;12.40;84.30;;;;;;5041428;28;20082;-73
2022/04/15 08:40:55;;;;;;;16.55;8.32;;;12.40;85.40;;;;;;5035989;28;20649;-72
2022/04/15 08:43:21;;;;;;;11.65;7.18;;;12.30;86.00;;;;;;5042722;28;20570;-69
2022/04/15 08:45:47;;;;;;;14.07;7.85;;;12.30;86.10;;;;;;5041752;28;20036;-74
2022/04/15 08:48:14;;;;;;;13.73;8.13;;;12.30;86.30;;;;;;5046007;28;20036;-73
2022/04/15 08:50:39;;;;;;;12.18;8.25;;;12.40;86.10;;;;;;5046161;28;20049;-73
2022/04/15 08:53:05;;;;;;;13.43;8.40;;;12.40;85.40;;;;;;5037472;28;20583;-76
2022/04/15 08:55:31;;;;;;;12.55;7.80;;;12.30;86.00;;;;;;5040778;28;20135;-72
2022/04/15 08:57:58;;;;;;;14.23;8.40;;;12.30;86.30;;;;;;5043298;28;20033;-73
2022/04/15 09:00:25;;;;;;;12.77;8.00;;;12.40;86.70;;;;;;5044952;28;20040;-75
2022/04/15 09:02:52;;;;;;;13.07;7.97;;;12.40;85.80;;;;;;5043208;28;20040;-73
2022/04/15 09:05:23;;;;;;;14.88;8.63;;;12.40;85.80;;;;;;5045581;28;20036;-73
2022/04/15 09:07:49;;;;;;;35.85;18.60;;;12.40;86.00;;;;;;5041918;28;20127;-73
2022/04/15 09:10:18;;;;;;;24.88;14.50;;;12.40;85.70;;;;;;5046385;28;20763;-74
2022/04/15 09:12:46;;;;;;;13.70;9.27;;;12.40;85.80;;;;;;5043240;28;20547;-72
2022/04/15 09:15:13;;;;;;;14.10;9.10;;;12.40;86.00;;;;;;5041553;28;20119;-74
2022/04/15 09:17:41;;;;;;;13.98;8.35;;;12.40;85.40;;;;;;5044269;28;20111;-73
2022/04/15 09:20:09;;;;;;;25.92;14.82;;;12.40;86.10;;;;;;5045413;28;20071;-75
2022/04/15 09:22:36;;;;;;;12.00;7.40;;;12.50;85.80;;;;;;5039519;28;20574;-75
2022/04/15 09:25:03;;;;;;;15.10;7.75;;;12.50;85.40;;;;;;5044937;28;20102;-75
2022/04/15 09:27:29;;;;;;;13.73;8.75;;;12.50;84.60;;;;;;5046785;28;20031;-75
2022/04/15 09:29:55;;;;;;;11.90;8.02;;;12.40;85.60;;;;;;5046611;28;20033;-76
2022/04/15 09:32:24;;;;;;;16.58;7.97;;;12.50;86.50;;;;;;5041642;28;20033;-74
2022/04/15 09:34:58;;;;;;;13.18;8.02;;;12.50;86.60;;;;;;5040735;28;20032;-75
2022/04/15 09:37:34;;;;;;;14.57;7.22;;;12.40;86.70;;;;;;5040275;28;20115;-74
2022/04/15 09:40:05;;;;;;;13.93;7.72;;;12.30;87.20;;;;;;5029534;28;20044;-74
2022/04/15 09:42:31;;;;;;;12.77;7.78;;;12.30;87.00;;;;;;5046349;28;20903;-74
2022/04/15 09:45:00;;;;;;;12.18;7.13;;;12.30;87.40;;;;;;5041781;28;20037;-74
2022/04/15 09:47:27;;;;;;;12.02;7.95;;;12.50;87.10;;;;;;5042678;28;20044;-74
2022/04/15 09:49:53;;;;;;;12.27;7.55;;;12.60;86.70;;;;;;5044783;28;20043;-74
2022/04/15 09:52:25;;;;;;;13.85;8.13;;;12.80;85.60;;;;;;5038241;28;20037;-74
2022/04/15 09:54:55;;;;;;;14.43;9.25;;;12.80;84.60;;;;;;5041566;28;20031;-74
2022/04/15 09:57:24;;;;;;;20.15;10.50;;;12.70;84.90;;;;;;5041048;28;20041;-74
2022/04/15 09:59:54;;;;;;;15.98;9.55;;;12.80;85.50;;;;;;5026122;28;20326;-74
2022/04/15 10:02:22;;;;;;;15.55;9.38;;;12.70;85.60;;;;;;5040911;28;20068;-74
2022/04/15 10:04:49;;;;;;;17.92;10.75;;;12.70;84.70;;;;;;5047778;28;20129;-74
2022/04/15 10:07:14;;;;;;;20.10;9.48;;;12.70;85.20;;;;;;5052503;28;20040;-74
2022/04/15 10:09:42;;;;;;;15.30;8.25;;;12.70;85.10;;;;;;5042980;28;20041;-74
2022/04/15 10:12:08;;;;;;;11.40;8.05;;;12.70;85.70;;;;;;5047733;28;20488;-74
2022/04/15 10:14:35;;;;;;;13.63;7.97;;;12.70;85.90;;;;;;5037845;28;20408;-74
2022/04/15 10:17:01;;;;;;;39.53;20.48;;;12.80;86.00;;;;;;5043793;28;20029;-74
2022/04/15 10:19:28;;;;;;;23.45;13.00;;;12.80;86.00;;;;;;5040488;28;20040;-75
2022/04/15 10:21:55;;;;;;;19.15;9.57;;;12.90;85.50;;;;;;5046710;28;20408;-74
2022/04/15 10:24:24;;;;;;;13.50;8.02;;;12.90;85.20;;;;;;5052087;28;20037;-74
2022/04/15 10:26:57;;;;;;;20.02;11.50;;;12.90;85.60;;;;;;5048376;28;20029;-75
2022/04/15 10:29:23;;;;;;;20.83;12.18;;;12.90;85.40;;;;;;5048746;28;20040;-73
2022/04/15 10:31:49;;;;;;;12.63;7.68;;;12.90;85.60;;;;;;5053582;28;20024;-73
2022/04/15 10:34:20;;;;;;;13.18;6.93;;;12.90;85.90;;;;;;5048846;28;20024;-72
2022/04/15 10:36:51;;;;;;;11.10;5.72;;;12.90;84.60;;;;;;5051324;28;20119;-74
2022/04/15 10:39:21;;;;;;;10.40;5.80;;;12.80;85.10;;;;;;5047225;28;20041;-76
2022/04/15 10:41:51;;;;;;;8.40;5.53;;;12.80;85.20;;;;;;5046130;28;20124;-73
2022/04/15 10:44:27;;;;;;;14.50;8.48;;;12.70;85.70;;;;;;5049688;28;20967;-74
2022/04/15 10:47:03;;;;;;;11.82;6.88;;;12.60;85.80;;;;;;5045221;28;20114;-74
2022/04/15 10:49:30;;;;;;;;;;;12.40;86.70;;;;;;5043628;28;20174;-74
2022/04/15 10:51:58;;;;;;;7.75;5.25;;;12.30;87.40;;;;;;5049216;28;19936;-73
2022/04/15 10:54:31;;;;;;;14.10;6.90;;;12.40;87.70;;;;;;5047255;28;20611;-74
2022/04/15 10:57:08;;;;;;;10.85;6.28;;;12.40;87.80;;;;;;5043064;28;20021;-74
2022/04/15 11:02:24;;;;;;;16.15;9.68;;;12.30;88.20;;;;;;5049885;28;20040;-74
2022/04/15 11:04:51;;;;;;;11.68;7.10;;;12.40;88.40;;;;;;5047428;28;20403;-74
2022/04/15 11:07:42;;;;;;;18.25;10.88;;;12.50;88.30;;;;;;5051883;28;20110;-73
2022/04/15 11:10:37;;;;;;;8.82;5.20;;;12.60;88.00;;;;;;5046204;28;20561;-74
2022/04/15 11:13:03;;;;;;;9.68;5.55;;;12.80;87.60;;;;;;5028630;28;20032;-73
2022/04/15 11:15:51;;;;;;;9.80;5.93;;;12.80;86.70;;;;;;5044378;28;20029;-73
2022/04/15 11:18:17;;;;;;;8.82;6.15;;;12.90;86.90;;;;;;5050119;28;20036;-73
2022/04/15 11:20:45;;;;;;;7.68;4.63;;;13.00;86.70;;;;;;5046758;28;20099;-73
2022/04/15 11:23:12;;;;;;;6.53;4.65;;;12.90;86.90;;;;;;5048042;28;20511;-72
2022/04/15 11:25:44;;;;;;;4.93;3.88;;;12.90;87.60;;;;;;5040861;28;20059;-72
2022/04/15 11:28:11;;;;;;;5.85;4.20;;;12.80;88.40;;;;;;5034923;28;20045;-72
2022/04/15 11:30:37;;;;;;;7.82;5.13;;;12.80;89.10;;;;;;5039821;28;20028;-74
2022/04/15 11:33:05;;;;;;;8.43;4.45;;;12.60;89.50;;;;;;5040010;28;20029;-75
2022/04/15 11:35:33;;;;;;;6.93;4.25;;;12.40;90.30;;;;;;5043192;28;20537;-75
2022/04/15 11:38:08;;;;;;;6.20;4.47;;;12.40;90.70;;;;;;5036993;28;20064;-74
2022/04/15 11:40:36;;;;;;;7.05;4.63;;;12.30;91.00;;;;;;5049029;28;20025;-74
2022/04/15 11:43:07;;;;;;;8.82;5.15;;;12.20;91.30;;;;;;5044856;28;20771;-74
2022/04/15 11:45:39;;;;;;;7.45;5.13;;;12.10;91.70;;;;;;5040439;28;20071;-75
2022/04/15 11:48:24;;;;;;;9.43;5.70;;;12.10;92.00;;;;;;5037183;28;20108;-75
2022/04/15 11:50:54;;;;;;;7.80;5.27;;;12.00;92.10;;;;;;5041423;28;20025;-73
2022/04/15 11:53:22;;;;;;;6.55;4.72;;;12.20;92.30;;;;;;5048085;28;21025;-74
2022/04/15 11:55:53;;;;;;;9.05;4.85;;;12.20;92.10;;;;;;5043197;28;20829;-74
2022/04/15 11:58:21;;;;;;;6.07;4.03;;;12.40;91.80;;;;;;5043204;28;20565;-77
2022/04/15 12:00:52;;;;;;;6.60;4.07;;;12.40;91.60;;;;;;5026726;28;20108;-74
2022/04/15 12:03:19;;;;;;;7.78;4.28;;;12.50;91.50;;;;;;5042308;28;20045;-74
2022/04/15 12:05:45;;;;;;;7.78;5.03;;;12.50;91.50;;;;;;5046430;28;20203;-74
2022/04/15 12:08:10;;;;;;;6.50;4.68;;;12.60;91.30;;;;;;5043615;28;20044;-75
2022/04/15 12:10:40;;;;;;;7.03;4.28;;;12.70;91.10;;;;;;5045993;28;20833;-74
2022/04/15 12:13:08;;;;;;;6.88;4.50;;;12.70;90.50;;;;;;5046406;28;20128;-75
2022/04/15 12:15:35;;;;;;;6.90;4.15;;;12.60;90.80;;;;;;5048199;28;20064;-74
2022/04/15 12:18:03;;;;;;;6.00;3.97;;;12.80;90.70;;;;;;5048117;28;20036;-74
2022/04/15 12:20:30;;;;;;;8.52;4.32;;;12.70;90.60;;;;;;5020547;28;20060;-74
2022/04/15 12:22:57;;;;;;;6.55;4.05;;;12.70;90.90;;;;;;5046271;28;20063;-74
2022/04/15 12:25:23;;;;;;;7.07;4.45;;;12.80;91.10;;;;;;5048897;28;20039;-74
2022/04/15 12:27:50;;;;;;;6.97;4.15;;;12.80;91.00;;;;;;5046811;28;20031;-74
2022/04/15 12:30:37;;;;;;;5.43;3.75;;;12.80;90.80;;;;;;5043509;28;20028;-74
2022/04/15 12:33:07;;;;;;;5.07;3.30;;;12.80;90.80;;;;;;5042184;28;20795;-74
2022/04/15 12:35:34;;;;;;;5.28;3.70;;;12.90;90.90;;;;;;5043263;28;20041;-75
2022/04/15 12:38:01;;;;;;;6.05;4.30;;;13.00;90.40;;;;;;5036504;28;20211;-74
2022/04/15 12:40:32;;;;;;;6.28;4.07;;;13.00;90.40;;;;;;5040207;28;20047;-74
2022/04/15 12:43:11;;;;;;;5.10;3.75;;;13.00;90.50;;;;;;5043426;28;20033;-74